Dades meteomassalio
Diari Summary for Gener 12, 2017 Units:  English    Metric   Both
« Previous Day
Next Day »
Diari Semanal Mensual Anual Personalitzat
  Maxima: Minima: Mijana:
Temperatura: 65.5 °F 43.9 °F 53.6 °F
Rosada: 48.9 °F 40.6 °F 45.7 °F
Humitat: 90 % 53 % 75 %
Velocitat del vent: 13.8 mph 0 mph 2.7 mph
Racha vent: 13.8 mph - -
Vent:- - WSW
Pressio: 30.3 in 30 in -
Pluja: 0 in    
Historical Graphs
 
 
Tabular Data for Gener 12, 2017
Time Temperature Dew Point Pressure Wind Wind Speed Wind Gust Humidity Rainfall Rate (Hourly) solar Conditions
00:02 53.8 °F 46.9 °F 30.3 in West 11.5 mph 11.5 mph 78 % 0 in 0.0 W/m2 CLR
00:07 53.6 °F 46.9 °F 30.3 in West 11.5 mph 11.5 mph 78 % 0 in 0.0 W/m2 CLR
00:12 53.4 °F 46.8 °F 30.3 in West 11.5 mph 11.5 mph 78 % 0 in 0.0 W/m2 CLR
00:17 53.2 °F 46.9 °F 30.3 in WSW 6 mph 6.8 mph 79 % 0 in 0.0 W/m2 CLR
00:22 53.2 °F 46.9 °F 30.3 in WSW 12 mph 12 mph 79 % 0 in 0.0 W/m2 CLR
00:27 53.2 °F 46.6 °F 30.3 in WSW 5 mph 5 mph 78 % 0 in 0.0 W/m2 CLR
00:32 52.9 °F 46.6 °F 30.3 in WSW 1.2 mph 1.2 mph 79 % 0 in 0.0 W/m2 CLR
00:37 52.9 °F 46.6 °F 30.3 in WSW 3.5 mph   79 % 0 in 0.0 W/m2 CLR
00:42 53.1 °F 46.8 °F 30.3 in Calm     79 % 0 in 0.0 W/m2 CLR
00:47 52.9 °F 46.6 °F 30.3 in Calm     79 % 0 in 0.0 W/m2 CLR
00:52 52.3 °F 46.2 °F 30.3 in Calm     80 % 0 in 0.0 W/m2 CLR
00:57 52.2 °F 46.6 °F 30.3 in SW 3.5 mph 3.5 mph 81 % 0 in 0.0 W/m2 CLR
01:02 52.2 °F 46.4 °F 30.3 in Calm     81 % 0 in 0.0 W/m2 CLR
01:07 52 °F 46.2 °F 30.3 in Calm     81 % 0 in 0.0 W/m2 CLR
01:12 52 °F 46.2 °F 30.3 in Calm     81 % 0 in 0.0 W/m2 CLR
01:17 51.8 °F 46.2 °F 30.3 in Calm     81 % 0 in 0.0 W/m2 CLR
01:22 51.6 °F 46 °F 30.3 in Calm     81 % 0 in 0.0 W/m2 CLR
01:27 51.4 °F 45.9 °F 30.3 in Calm     81 % 0 in 0.0 W/m2 CLR
01:32 51.6 °F 46 °F 30.3 in WSW 3.5 mph 3.5 mph 81 % 0 in 0.0 W/m2 CLR
01:37 51.6 °F 46 °F 30.3 in SW 3.5 mph 3.5 mph 81 % 0 in 0.0 W/m2 CLR
01:42 51.8 °F 46.2 °F 30.3 in SW 5 mph 5 mph 81 % 0 in 0.0 W/m2 CLR
01:47 51.8 °F 45.9 °F 30.3 in Calm     80 % 0 in 0.0 W/m2 CLR
01:52 51.6 °F 46 °F 30.3 in SW 5.8 mph 5.8 mph 81 % 0 in 0.0 W/m2 CLR
01:57 51.6 °F 45.7 °F 30.3 in SW 2.3 mph 2.3 mph 80 % 0 in 0.0 W/m2 CLR
02:02 51.4 °F 45.9 °F 30.3 in Calm     81 % 0 in 0.0 W/m2 CLR
02:07 51.3 °F 45.7 °F 30.3 in Calm     81 % 0 in 0.0 W/m2 CLR
02:12 51.1 °F 45.5 °F 30.3 in Calm     81 % 0 in 0.0 W/m2 CLR
02:17 50.9 °F 45.7 °F 30.3 in WSW 3.5 mph 3.5 mph 82 % 0 in 0.0 W/m2 CLR
02:22 51.4 °F 45.9 °F 30.3 in West 5.8 mph 5.8 mph 81 % 0 in 0.0 W/m2 CLR
02:27 51.8 °F 45.9 °F 30.3 in West 10.4 mph 10.4 mph 80 % 0 in 0.0 W/m2 CLR
02:32 52 °F 45.9 °F 30.3 in West 1.2 mph 1.2 mph 80 % 0 in 0.0 W/m2 CLR
02:37 52 °F 46 °F 30.3 in West 3.5 mph 3.5 mph 80 % 0 in 0.0 W/m2 CLR
02:42 52 °F 45.7 °F 30.3 in West 10.4 mph 10.4 mph 79 % 0 in 0.0 W/m2 CLR
02:47 52.2 °F 45.9 °F 30.3 in West 11.5 mph 11.5 mph 79 % 0 in 0.0 W/m2 CLR
02:52 52 °F 45.7 °F 30.3 in WSW 11.5 mph 11.5 mph 79 % 0 in 0.0 W/m2 CLR
02:57 51.6 °F 45.7 °F 30.3 in WSW 8.1 mph 8.1 mph 80 % 0 in 0.0 W/m2 CLR
03:02 51.4 °F 45.5 °F 30.3 in WSW 3 mph 3 mph 80 % 0 in 0.0 W/m2 CLR
03:07 51.1 °F 45.1 °F 30.3 in WSW 5.8 mph 5.8 mph 80 % 0 in 0.0 W/m2 CLR
03:12 50.7 °F 45.1 °F 30.3 in WSW 3.5 mph 3.5 mph 81 % 0 in 0.0 W/m2 CLR
03:17 50.5 °F 45 °F 30.3 in WSW 5.8 mph 5.8 mph 81 % 0 in 0.0 W/m2 CLR
03:22 50.5 °F 45.1 °F 30.3 in WSW 5.8 mph 5.8 mph 82 % 0 in 0.0 W/m2 CLR
03:27 50.4 °F 45.1 °F 30.3 in WSW 4.6 mph 4.6 mph 82 % 0 in 0.0 W/m2 CLR
03:32 50.2 °F 45 °F 30.3 in Calm     82 % 0 in 0.0 W/m2 CLR
03:37 50 °F 44.8 °F 30.3 in WSW 5.8 mph 5.8 mph 82 % 0 in 0.0 W/m2 CLR
03:42 49.8 °F 44.8 °F 30.3 in WSW 4.6 mph 4.6 mph 83 % 0 in 0.0 W/m2 CLR
03:47 49.8 °F 45 °F 30.3 in WSW 8.1 mph 8.1 mph 83 % 0 in 0.0 W/m2 CLR
03:52 49.8 °F 45 °F 30.3 in WSW 4.6 mph 4.6 mph 83 % 0 in 0.0 W/m2 CLR
03:57 50 °F 45 °F 30.3 in WSW 5.8 mph 5.8 mph 83 % 0 in 0.0 W/m2 CLR
04:02 50.2 °F 45 °F 30.3 in WSW 6.9 mph 6.9 mph 82 % 0 in 0.0 W/m2 CLR
04:07 50.4 °F 45.1 °F 30.3 in West 5.8 mph 5.8 mph 82 % 0 in 0.0 W/m2 CLR
04:12 50.5 °F 45.3 °F 30.3 in West 6.9 mph 6.9 mph 82 % 0 in 0.0 W/m2 CLR
04:17 50.7 °F 45.1 °F 30.3 in West 4.6 mph 4.6 mph 81 % 0 in 0.0 W/m2 CLR
04:22 50.5 °F 45 °F 30.3 in West 2.3 mph   81 % 0 in 0.0 W/m2 CLR
04:27 50 °F 44.4 °F 30.3 in WSW 3.5 mph 3.5 mph 81 % 0 in 0.0 W/m2 CLR
04:32 49.1 °F 43.9 °F 30.3 in WSW 3.5 mph   82 % 0 in 0.0 W/m2 CLR
04:37 48.7 °F 44.1 °F 30.3 in WSW 4 mph 4 mph 84 % 0 in 0.0 W/m2 CLR
04:43 48.7 °F 44.2 °F 30.3 in WSW 3.5 mph 3.5 mph 84 % 0 in 0.0 W/m2 CLR
04:48 48.9 °F 44.4 °F 30.3 in WSW 3.5 mph 3.5 mph 84 % 0 in 0.0 W/m2 CLR
04:53 49.3 °F 44.6 °F 30.3 in WSW 3.5 mph 3.5 mph 84 % 0 in 0.0 W/m2 CLR
04:58 49.1 °F 44.4 °F 30.3 in WSW 5 mph 5 mph 84 % 0 in 0.0 W/m2 CLR
05:03 49.3 °F 44.8 °F 30.3 in WSW 6.9 mph 6.9 mph 84 % 0 in 0.0 W/m2 CLR
05:08 49.5 °F 44.6 °F 30.3 in WSW 5.8 mph 5.8 mph 83 % 0 in 0.0 W/m2 CLR
05:13 49.5 °F 44.4 °F 30.3 in WSW 6.9 mph 6.9 mph 83 % 0 in 0.0 W/m2 CLR
05:18 49.5 °F 44.6 °F 30.3 in WSW 6.9 mph 6.9 mph 83 % 0 in 0.0 W/m2 CLR
05:23 49.6 °F 44.6 °F 30.3 in WSW 4.6 mph 4.6 mph 83 % 0 in 0.0 W/m2 CLR
05:28 49.6 °F 44.6 °F 30.3 in WSW 5.8 mph 5.8 mph 83 % 0 in 0.0 W/m2 CLR
05:33 49.6 °F 44.6 °F 30.3 in WSW 5.8 mph 5.8 mph 83 % 0 in 0.0 W/m2 CLR
05:38 49.3 °F 44.4 °F 30.3 in SW 4.6 mph 4.6 mph 83 % 0 in 0.0 W/m2 CLR
05:43 48.7 °F 44.1 °F 30.3 in SW 3.5 mph 3.5 mph 84 % 0 in 0.0 W/m2 CLR
05:48 48.9 °F 44.6 °F 30.3 in Calm     85 % 0 in 0.0 W/m2 CLR
05:53 49.1 °F 44.4 °F 30.3 in WSW 3.5 mph 3.5 mph 84 % 0 in 0.0 W/m2 CLR
05:58 49.3 °F 44.6 °F 30.3 in WSW 1 mph   84 % 0 in 0.0 W/m2 CLR
06:03 49.5 °F 44.8 °F 30.3 in WSW 5 mph 5 mph 84 % 0 in 0.0 W/m2 CLR
06:08 49.6 °F 45 °F 30.3 in WSW 6.9 mph 6.9 mph 84 % 0 in 0.0 W/m2 CLR
06:13 49.6 °F 44.6 °F 30.3 in West 5 mph 5 mph 83 % 0 in 0.0 W/m2 CLR
06:18 49.6 °F 44.8 °F 30.3 in West 6.9 mph 6.9 mph 83 % 0 in 0.0 W/m2 CLR
06:23 49.6 °F 44.8 °F 30.3 in WSW 5.8 mph 5.8 mph 83 % 0 in 0.0 W/m2 CLR
06:28 49.3 °F 44.1 °F 30.3 in Calm     82 % 0 in 0.0 W/m2 CLR
06:33 48.6 °F 43.7 °F 30.3 in Calm     83 % 0 in 0.0 W/m2 CLR
06:38 47.8 °F 43.3 °F 30.3 in Calm     84 % 0 in 0.0 W/m2 CLR
06:43 47.7 °F 43.3 °F 30.3 in Calm     85 % 0 in 0.0 W/m2 CLR
06:48 47.7 °F 43.3 °F 30.3 in Calm     85 % 0 in 0.0 W/m2 CLR
06:53 46.9 °F 42.6 °F 30.3 in Calm     85 % 0 in 0.0 W/m2 CLR
06:58 46.6 °F 42.6 °F 30.3 in WSW 3.5 mph 3.5 mph 86 % 0 in 0.0 W/m2 CLR
07:03 47.1 °F 43.3 °F 30.3 in Calm     87 % 0 in 0.0 W/m2 CLR
07:08 46.9 °F 42.6 °F 30.3 in Calm     85 % 0 in 0.0 W/m2 CLR
07:13 46.8 °F 42.8 °F 30.3 in SW 4.6 mph 4.6 mph 86 % 0 in 0.0 W/m2 CLR
07:18 46.8 °F 42.6 °F 30.3 in Calm     86 % 0 in 0.0 W/m2 CLR
07:23 46 °F 42.1 °F 30.3 in Calm     86 % 0 in 0.0 W/m2 CLR
07:28 45.7 °F 41.7 °F 30.3 in Calm     86 % 0 in 0.0 W/m2 CLR
07:33 45.1 °F 41.5 °F 30.3 in Calm     87 % 0 in 0.0 W/m2 CLR
07:38 45.1 °F 41.9 °F 30.3 in Calm     88 % 0 in 0.0 W/m2 CLR
07:43 45.7 °F 42.3 °F 30.3 in Calm     88 % 0 in 0.0 W/m2 CLR
07:48 46 °F 42.3 °F 30.3 in SW 3.5 mph 3.5 mph 87 % 0 in 0.0 W/m2 CLR
07:53 45.7 °F 42.1 °F 30.3 in SW 4.6 mph 4.6 mph 87 % 0 in 0.0 W/m2 CLR
07:58 46 °F 42.6 °F 30.3 in Calm     88 % 0 in 0.0 W/m2 CLR
08:03 46 °F 42.1 °F 30.3 in Calm     86 % 0 in 0.0 W/m2 CLR
08:08 45.1 °F 41 °F 30.3 in Calm     85 % 0 in 0.0 W/m2 CLR
08:13 44.6 °F 40.6 °F 30.3 in Calm     86 % 0 in 0.0 W/m2 CLR
08:18 44.2 °F 40.6 °F 30.3 in Calm     87 % 0 in 0.0 W/m2 CLR
08:23 44.1 °F 40.8 °F 30.3 in Calm     88 % 0 in 5.0 W/m2 BKN
08:28 44.1 °F 40.6 °F 30.3 in Calm     88 % 0 in 7.0 W/m2 BKN
08:33 43.9 °F 40.8 °F 30.3 in Calm     89 % 0 in 9.0 W/m2 BKN
08:38 43.9 °F 40.8 °F 30.3 in Calm     89 % 0 in 11.0 W/m2 BKN
08:43 44.1 °F 41 °F 30.3 in Calm     89 % 0 in 12.0 W/m2 BKN
08:48 44.1 °F 41.4 °F 30.3 in Calm     90 % 0 in 14.0 W/m2 BKN
08:53 44.2 °F 41.4 °F 30.3 in Calm     89 % 0 in 16.0 W/m2 BKN
08:58 44.4 °F 41.5 °F 30.3 in Calm     89 % 0 in 25.0 W/m2 BKN
09:03 45 °F 41.9 °F 30.3 in Calm     89 % 0 in 37.0 W/m2 BKN
09:08 45.5 °F 42.3 °F 30.3 in Calm     88 % 0 in 39.0 W/m2 BKN
09:13 45.7 °F 42.1 °F 30.3 in Calm     87 % 0 in 53.0 W/m2 BKN
09:18 46 °F 42.3 °F 30.3 in Calm     87 % 0 in 63.0 W/m2 BKN
09:23 46 °F 42.1 °F 30.3 in Calm     86 % 0 in 69.0 W/m2 BKN
09:28 46.2 °F 42.1 °F 30.2 in Calm     85 % 0 in 93.0 W/m2 BKN
09:33 46.2 °F 42.1 °F 30.2 in Calm     85 % 0 in 60.0 W/m2 BKN
09:38 46.4 °F 42.1 °F 30.3 in Calm     85 % 0 in 77.0 W/m2 BKN
09:43 47.1 °F 43.2 °F 30.2 in Calm     86 % 0 in 102.0 W/m2 BKN
09:48 47.8 °F 43.5 °F 30.2 in Calm     85 % 0 in 120.0 W/m2 BKN
09:53 48.4 °F 43.3 °F 30.2 in Calm     83 % 0 in 116.0 W/m2 BKN
09:58 48.6 °F 43.7 °F 30.2 in Calm     83 % 0 in 171.0 W/m2 BKN
10:03 48.9 °F 44.1 °F 30.2 in Calm     83 % 0 in 105.0 W/m2 SCT
10:08 49.5 °F 44.1 °F 30.2 in Calm     82 % 0 in 162.0 W/m2 BKN
10:13 49.6 °F 44.2 °F 30.2 in Calm     82 % 0 in 171.0 W/m2 BKN
10:18 49.8 °F 44.6 °F 30.2 in Calm     82 % 0 in 225.0 W/m2 SCT
10:23 50.4 °F 45 °F 30.2 in Calm     82 % 0 in 239.0 W/m2 SCT
10:28 51.1 °F 45.9 °F 30.2 in Calm     82 % 0 in 251.0 W/m2 SCT
10:33 52 °F 45.9 °F 30.2 in Calm     80 % 0 in 264.0 W/m2 SCT
10:38 52.5 °F 46.2 °F 30.2 in Calm     79 % 0 in 272.0 W/m2 SCT
10:43 53.1 °F 46 °F 30.2 in Calm     77 % 0 in 283.0 W/m2 SCT
10:48 53.4 °F 46.4 °F 30.2 in Calm     77 % 0 in 294.0 W/m2 SCT
10:53 54 °F 46.9 °F 30.2 in Calm     77 % 0 in 304.0 W/m2 SCT
10:58 54.7 °F 46.9 °F 30.2 in Calm     75 % 0 in 313.0 W/m2 SCT
11:03 55.2 °F 47.5 °F 30.2 in Calm     75 % 0 in 320.0 W/m2 FEW
11:08 55.4 °F 47.1 °F 30.2 in Calm     74 % 0 in 330.0 W/m2 FEW
11:13 55.4 °F 47.1 °F 30.2 in Calm     74 % 0 in 339.0 W/m2 FEW
11:19 55.6 °F 47.5 °F 30.2 in Calm     74 % 0 in 348.0 W/m2 FEW
11:23 55.9 °F 47.5 °F 30.2 in Calm     73 % 0 in 355.0 W/m2 FEW
11:29 56.5 °F 47.8 °F 30.2 in Calm     73 % 0 in 364.0 W/m2 FEW
11:34 56.8 °F 47.8 °F 30.2 in Calm     72 % 0 in 371.0 W/m2 FEW
11:39 57.2 °F 47.8 °F 30.2 in Calm     71 % 0 in 378.0 W/m2 FEW
11:44 57.6 °F 48.4 °F 30.2 in Calm     71 % 0 in 385.0 W/m2 FEW
11:49 58.3 °F 48.2 °F 30.2 in Calm     69 % 0 in 390.0 W/m2 FEW
11:54 58.8 °F 48 °F 30.2 in Calm     67 % 0 in 397.0 W/m2 FEW
11:59 59.4 °F 48 °F 30.2 in Calm     66 % 0 in 401.0 W/m2 FEW
12:04 60.1 °F 47.8 °F 30.2 in NNE 3 mph 3 mph 64 % 0 in 410.0 W/m2 FEW
12:09 60.1 °F 47.5 °F 30.2 in NW 4.6 mph 4.6 mph 63 % 0 in 415.0 W/m2 FEW
12:14 60.1 °F 47.8 °F 30.2 in NW 4.6 mph 4.6 mph 64 % 0 in 420.0 W/m2 FEW
12:19 60.3 °F 48 °F 30.2 in NW 4.6 mph 4.6 mph 64 % 0 in 424.0 W/m2 CLR
12:24 60.4 °F 47.3 °F 30.2 in Calm     62 % 0 in 429.0 W/m2 CLR
12:29 60.6 °F 48 °F 30.2 in Calm     63 % 0 in 436.0 W/m2 CLR
12:34 61.2 °F 48 °F 30.2 in Calm   0.6 mph 62 % 0 in 448.0 W/m2 CLR
12:39 61.7 °F 47.1 °F 30.2 in SW 5 mph 5 mph 59 % 0 in 462.0 W/m2 CLR
12:44 61.9 °F 47.8 °F 30.2 in SSW 4.6 mph 4.6 mph 60 % 0 in 480.0 W/m2 CLR
12:49 62.2 °F 47.8 °F 30.2 in SSW 5.8 mph 5.8 mph 59 % 0 in 499.0 W/m2 CLR
12:54 62.2 °F 47.8 °F 30.2 in South 4.6 mph 4.6 mph 59 % 0 in 448.0 W/m2 CLR
12:59 62.8 °F 47.7 °F 30.2 in SSW 4 mph 4 mph 58 % 0 in 306.0 W/m2 CLR
13:04 62.6 °F 47.7 °F 30.2 in SW 3.5 mph   58 % 0 in 288.0 W/m2 FEW
13:09 62.4 °F 47.5 °F 30.1 in SW 4.6 mph 4.6 mph 58 % 0 in 304.0 W/m2 SCT
13:14 63 °F 47.8 °F 30.1 in Calm     58 % 0 in 401.0 W/m2 SCT
13:19 63.1 °F 47.7 °F 30.1 in SW 3 mph 3 mph 57 % 0 in 499.0 W/m2 FEW
13:24 63.3 °F 47.3 °F 30.1 in WSW 3.5 mph   56 % 0 in 311.0 W/m2 FEW
13:29 63.7 °F 48 °F 30.1 in Calm     57 % 0 in 441.0 W/m2 CLR
13:34 64.2 °F 47.7 °F 30.1 in Calm     55 % 0 in 499.0 W/m2 CLR
13:39 64.8 °F 47.7 °F 30.1 in Calm     54 % 0 in 480.0 W/m2 CLR
13:44 65.3 °F 47.7 °F 30.1 in Calm     53 % 0 in 452.0 W/m2 CLR
13:49 65.5 °F 47.8 °F 30.1 in West 4.6 mph 4.6 mph 53 % 0 in 367.0 W/m2 CLR
13:54 64.8 °F 47.8 °F 30.1 in Calm     54 % 0 in 213.0 W/m2 SCT
13:59 64.6 °F 47.5 °F 30.1 in Calm     54 % 0 in 274.0 W/m2 SCT
14:04 64.4 °F 47.5 °F 30.1 in Calm     54 % 0 in 251.0 W/m2 SCT
14:09 64.2 °F 47.3 °F 30.1 in NNW 3.5 mph 3.5 mph 54 % 0 in 192.0 W/m2 SCT
14:14 64.2 °F 47.7 °F 30.1 in Calm     55 % 0 in 257.0 W/m2 BKN
14:19 64.2 °F 47.8 °F 30.1 in Calm     55 % 0 in 292.0 W/m2 SCT
14:24 64.6 °F 48.4 °F 30.1 in Calm     56 % 0 in 466.0 W/m2 FEW
14:29 64.8 °F 48.2 °F 30.1 in NNE 5.8 mph 5.8 mph 55 % 0 in 302.0 W/m2 CLR
14:34 64.4 °F 48.4 °F 30.1 in NNE 4 mph 4 mph 56 % 0 in 204.0 W/m2 FEW
14:39 64.2 °F 48.6 °F 30.1 in Calm     57 % 0 in 250.0 W/m2 SCT
14:44 64 °F 48.6 °F 30.1 in NNE 2.3 mph 2.3 mph 57 % 0 in 281.0 W/m2 SCT
14:49 64 °F 48.6 °F 30.1 in Calm     57 % 0 in 199.0 W/m2 SCT
14:54 64 °F 48.6 °F 30.1 in Calm     57 % 0 in 163.0 W/m2 SCT
14:59 63.9 °F 48.4 °F 30.1 in Calm     57 % 0 in 165.0 W/m2 BKN
15:04 63.7 °F 48.6 °F 30.1 in NE 2.3 mph   58 % 0 in 167.0 W/m2 BKN
15:09 63.3 °F 48.4 °F 30.1 in NE 4.6 mph 4.6 mph 58 % 0 in 158.0 W/m2 BKN
15:14 63.1 °F 48.6 °F 30.1 in NNE 5.8 mph 5.8 mph 59 % 0 in 156.0 W/m2 BKN
15:19 62.8 °F 48.7 °F 30.1 in NNE 3.5 mph 3.5 mph 60 % 0 in 163.0 W/m2 BKN
15:24 62.4 °F 48.4 °F 30.1 in Calm     60 % 0 in 153.0 W/m2 SCT
15:29 62.4 °F 48.4 °F 30.1 in Calm     60 % 0 in 146.0 W/m2 SCT
15:34 62.4 °F 48.4 °F 30.1 in Calm     60 % 0 in 125.0 W/m2 SCT
15:39 62.4 °F 48.7 °F 30.1 in Calm     61 % 0 in 111.0 W/m2 BKN
15:44 62.4 °F 48.4 °F 30.1 in Calm     60 % 0 in 118.0 W/m2 BKN
15:49 62.4 °F 48.9 °F 30.1 in Calm     61 % 0 in 172.0 W/m2 BKN
15:54 62.8 °F 48.7 °F 30.1 in Calm     60 % 0 in 234.0 W/m2 SCT
15:59 63.1 °F 48.6 °F 30.1 in Calm     59 % 0 in 165.0 W/m2 CLR
16:04 63.1 °F 48 °F 30.1 in Calm     58 % 0 in 329.0 W/m2 CLR
16:09 63.3 °F 48.4 °F 30.1 in Calm     58 % 0 in 241.0 W/m2 CLR
16:14 63.5 °F 48.6 °F 30.1 in Calm     58 % 0 in 181.0 W/m2 CLR
16:19 63.7 °F 48.9 °F 30.1 in Calm     59 % 0 in 202.0 W/m2 CLR
16:24 63.7 °F 48.2 °F 30.1 in Calm     57 % 0 in 123.0 W/m2 CLR
16:29 63.7 °F 48.6 °F 30.1 in Calm     58 % 0 in 107.0 W/m2 CLR
16:34 63.3 °F 48.4 °F 30.1 in Calm     58 % 0 in 97.0 W/m2 CLR
16:39 63.3 °F 48.4 °F 30.1 in Calm     58 % 0 in 90.0 W/m2 CLR
16:44 63.1 °F 48.2 °F 30.1 in Calm     58 % 0 in 77.0 W/m2 CLR
16:50 63 °F 47.8 °F 30.1 in Calm     58 % 0 in 67.0 W/m2 CLR
16:55 62.8 °F 48.2 °F 30.1 in Calm     59 % 0 in 58.0 W/m2 CLR
17:00 62.2 °F 47.8 °F 30.1 in Calm     59 % 0 in 47.0 W/m2 CLR
17:05 62.1 °F 47.7 °F 30.1 in Calm     59 % 0 in 40.0 W/m2 CLR
17:10 61.9 °F 47.8 °F 30.1 in Calm     60 % 0 in 37.0 W/m2 OVC
17:15 61.5 °F 47.8 °F 30.1 in Calm     61 % 0 in 33.0 W/m2 OVC
17:20 61 °F 47.8 °F 30.1 in Calm     62 % 0 in 30.0 W/m2 OVC
17:25 60.6 °F 47.8 °F 30.1 in Calm     63 % 0 in 26.0 W/m2 OVC
17:30 60.4 °F 48.6 °F 30.1 in Calm     65 % 0 in 23.0 W/m2 OVC
17:35 59.9 °F 48 °F 30.1 in Calm     65 % 0 in 18.0 W/m2 OVC
17:40 59.4 °F 48 °F 30.1 in Calm     66 % 0 in 12.0 W/m2 OVC
17:45 59.2 °F 48 °F 30.1 in Calm     67 % 0 in 9.0 W/m2 OVC
17:50 58.6 °F 48 °F 30.1 in Calm     68 % 0 in 0.0 W/m2 OVC
17:55 58.1 °F 48 °F 30.1 in Calm     69 % 0 in 0.0 W/m2 CLR
18:00 57.6 °F 47.8 °F 30.1 in Calm     70 % 0 in 0.0 W/m2 CLR
18:05 57 °F 48.2 °F 30.1 in Calm     72 % 0 in 0.0 W/m2 CLR
18:10 56.7 °F 47.8 °F 30.1 in Calm     72 % 0 in 0.0 W/m2 CLR
18:15 56.1 °F 47.7 °F 30.1 in Calm     73 % 0 in 0.0 W/m2 CLR
18:20 55 °F 47.1 °F 30.1 in Calm     75 % 0 in 0.0 W/m2 CLR
18:25 54.3 °F 46.9 °F 30.1 in Calm     76 % 0 in 0.0 W/m2 CLR
18:30 53.8 °F 46.9 °F 30.1 in Calm     78 % 0 in 0.0 W/m2 CLR
18:35 53.1 °F 46.4 °F 30.1 in Calm     78 % 0 in 0.0 W/m2 CLR
18:40 52.9 °F 46.8 °F 30.1 in Calm     80 % 0 in 0.0 W/m2 CLR
18:45 52.9 °F 46.9 °F 30.1 in Calm     80 % 0 in 0.0 W/m2 CLR
18:50 53.1 °F 46.8 °F 30.1 in Calm     79 % 0 in 0.0 W/m2 CLR
18:56 52.2 °F 45.5 °F 30.1 in Calm     78 % 0 in 0.0 W/m2 CLR
19:01 51.4 °F 45.9 °F 30.1 in Calm     81 % 0 in 0.0 W/m2 CLR
19:06 50.9 °F 45.7 °F 30.1 in Calm     82 % 0 in 0.0 W/m2 CLR
19:11 50.5 °F 45.7 °F 30.1 in Calm     83 % 0 in 0.0 W/m2 CLR
19:16 50.4 °F 45.3 °F 30.1 in Calm     83 % 0 in 0.0 W/m2 CLR
19:21 50.2 °F 45.1 °F 30.1 in Calm     83 % 0 in 0.0 W/m2 CLR
19:26 49.8 °F 45.3 °F 30.1 in Calm     84 % 0 in 0.0 W/m2 CLR
19:31 49.6 °F 45.1 °F 30.1 in Calm     84 % 0 in 0.0 W/m2 CLR
19:36 49.5 °F 45 °F 30.1 in Calm     84 % 0 in 0.0 W/m2 CLR
19:41 49.5 °F 44.8 °F 30.1 in SW 3 mph 3 mph 84 % 0 in 0.0 W/m2 CLR
19:46 49.5 °F 44.8 °F 30.1 in Calm     84 % 0 in 0.0 W/m2 CLR
19:51 49.1 °F 44.4 °F 30.1 in Calm     84 % 0 in 0.0 W/m2 CLR
19:56 48.7 °F 44.4 °F 30.1 in WSW 4.6 mph 4.6 mph 85 % 0 in 0.0 W/m2 CLR
20:01 48.6 °F 44.2 °F 30.1 in WSW 3.5 mph 3.5 mph 85 % 0 in 0.0 W/m2 CLR
20:06 48.6 °F 44.2 °F 30.1 in Calm     85 % 0 in 0.0 W/m2 CLR
20:11 48.6 °F 44.2 °F 30.1 in Calm     85 % 0 in 0.0 W/m2 CLR
20:16 48.6 °F 44.2 °F 30.1 in Calm     85 % 0 in 0.0 W/m2 CLR
20:21 48.2 °F 43.9 °F 30.1 in Calm     85 % 0 in 0.0 W/m2 CLR
20:26 48 °F 44.1 °F 30.1 in Calm     86 % 0 in 0.0 W/m2 CLR
20:31 48 °F 44.1 °F 30.1 in Calm     86 % 0 in 0.0 W/m2 CLR
20:36 48 °F 44.1 °F 30.1 in Calm     86 % 0 in 0.0 W/m2 CLR
20:41 48 °F 44.1 °F 30.1 in SW 5.8 mph 5.8 mph 86 % 0 in 0.0 W/m2 CLR
20:46 48.4 °F 44.1 °F 30 in WSW 4.6 mph 4.6 mph 85 % 0 in 0.0 W/m2 CLR
20:51 48.2 °F 43.9 °F 30.1 in Calm     85 % 0 in 0.0 W/m2 CLR
20:56 48.4 °F 44.1 °F 30.1 in Calm     85 % 0 in 0.0 W/m2 CLR
21:01 48.2 °F 43.5 °F 30.1 in Calm     84 % 0 in 0.0 W/m2 CLR
21:06 48.2 °F 43.9 °F 30.1 in Calm     85 % 0 in 0.0 W/m2 CLR
21:11 48.4 °F 44.1 °F 30.1 in Calm     85 % 0 in 0.0 W/m2 CLR
21:16 48.4 °F 43.7 °F 30.1 in Calm     84 % 0 in 0.0 W/m2 CLR
21:21 48.9 °F 44.2 °F 30.1 in West 1.2 mph 1.2 mph 84 % 0 in 0.0 W/m2 CLR
21:26 50.2 °F 45 °F 30.1 in West 8.1 mph 8.1 mph 82 % 0 in 0.0 W/m2 CLR
21:31 53.4 °F 45.9 °F 30.1 in West 10.4 mph 10.4 mph 75 % 0 in 0.0 W/m2 CLR
21:36 55 °F 45.9 °F 30.1 in WNW 10.4 mph 10.4 mph 71 % 0 in 0.0 W/m2 CLR
21:41 55.2 °F 45.7 °F 30.1 in WNW 6.9 mph 6.9 mph 70 % 0 in 0.0 W/m2 CLR
21:46 55.2 °F 45.7 °F 30.1 in WNW 6.9 mph 6.9 mph 70 % 0 in 0.0 W/m2 CLR
21:51 55.2 °F 45.7 °F 30.1 in WNW 9.2 mph 9.2 mph 70 % 0 in 0.0 W/m2 CLR
21:56 55.2 °F 46 °F 30.1 in WNW 6.9 mph 6.9 mph 71 % 0 in 0.0 W/m2 CLR
22:01 55.2 °F 46 °F 30.1 in WNW 9.2 mph 9.2 mph 71 % 0 in 0.0 W/m2 CLR
22:06 55.4 °F 46.2 °F 30.1 in WNW 8.1 mph 8.1 mph 71 % 0 in 0.0 W/m2 CLR
22:11 55.6 °F 46.2 °F 30.1 in West 6.9 mph 6.9 mph 71 % 0 in 0.0 W/m2 CLR
22:16 55.8 °F 46.2 °F 30.1 in West 10.4 mph 10.4 mph 70 % 0 in 0.0 W/m2 CLR
22:21 55.8 °F 46.2 °F 30.1 in WNW 10.4 mph 10.4 mph 70 % 0 in 0.0 W/m2 CLR
22:26 55.6 °F 46.2 °F 30.1 in WNW 6.9 mph 6.9 mph 71 % 0 in 0.0 W/m2 CLR
22:31 55 °F 46 °F 30.1 in NW 12.7 mph 12.7 mph 72 % 0 in 0.0 W/m2 CLR
22:36 54.9 °F 45.9 °F 30.1 in WNW 5 mph 5 mph 72 % 0 in 0.0 W/m2 CLR
22:41 54.7 °F 46 °F 30.1 in WNW 9 mph 9 mph 73 % 0 in 0.0 W/m2 CLR
22:46 54.3 °F 45.9 °F 30.1 in WNW 5.8 mph 5.8 mph 73 % 0 in 0.0 W/m2 CLR
22:51 54.1 °F 46 °F 30.1 in WNW 11.5 mph 11.5 mph 74 % 0 in 0.0 W/m2 CLR
22:56 54.1 °F 46 °F 30.1 in WNW 5.8 mph 5.8 mph 74 % 0 in 0.0 W/m2 CLR
23:01 54.1 °F 46 °F 30.1 in West 8.1 mph 8.1 mph 74 % 0 in 0.0 W/m2 CLR
23:06 53.8 °F 45.7 °F 30.1 in West 9 mph 9 mph 74 % 0 in 0.0 W/m2 CLR
23:11 54 °F 46.2 °F 30.1 in West 11.5 mph 11.5 mph 75 % 0 in 0.0 W/m2 CLR
23:16 54 °F 45.9 °F 30.1 in West 10.4 mph 10.4 mph 74 % 0 in 0.0 W/m2 CLR
23:21 54 °F 45.9 °F 30.1 in West 9.2 mph 9.2 mph 74 % 0 in 0.0 W/m2 CLR
23:26 54 °F 45.9 °F 30.1 in West 11.5 mph 11.5 mph 74 % 0 in 0.0 W/m2 CLR
23:31 53.8 °F 45.7 °F 30.1 in West 10.4 mph 10.4 mph 74 % 0 in 0.0 W/m2 CLR
23:36 54 °F 45.9 °F 30.1 in West 9.2 mph 9.2 mph 74 % 0 in 0.0 W/m2 CLR
23:42 53.8 °F 45.7 °F 30.1 in West 8 mph 8 mph 74 % 0 in 0.0 W/m2 CLR
23:47 54 °F 45.9 °F 30.1 in West 12 mph 12 mph 74 % 0 in 0.0 W/m2 CLR
23:52 54.3 °F 45.9 °F 30.1 in WNW 13.8 mph 13.8 mph 73 % 0 in 0.0 W/m2 CLR
23:57 54.3 °F 45.9 °F 30.1 in West 13.8 mph 13.8 mph 73 % 0 in 0.0 W/m2 CLR
Lo Temps de Massalio
Compliments of Weather Underground - 1.25 mb